Time;durP1;ratioP1;P1;durP2;ratioP2;P2;SDS_P1;SDS_P2;PMS_P1;PMS_P2;Temp;Humidity;BMP_temperature;BMP_pressure;BME280_temperature;BME280_humidity;BME280_pressure;Samples;Min_cycle;Max_cycle;Signal;HPM_P1;HPM_P2
2021/05/31 00:01:30;;;;;;;0.40;0.40;;;18.20;99.90;;;;;;5064091;28;20029;-50
2021/05/31 00:03:57;;;;;;;1.10;0.60;;;18.10;99.90;;;;;;5064562;28;20521;-49
2021/05/31 00:06:23;;;;;;;0.47;0.40;;;18.00;99.90;;;;;;5062931;28;20495;-52
2021/05/31 00:08:48;;;;;;;0.40;0.40;;;17.90;99.90;;;;;;5064244;28;20033;-52
2021/05/31 00:11:17;;;;;;;0.50;0.50;;;17.90;99.90;;;;;;5064524;28;20111;-51
2021/05/31 00:13:42;;;;;;;0.32;0.32;;;17.90;99.90;;;;;;5068589;28;20118;-52
2021/05/31 00:16:08;;;;;;;0.65;0.52;;;18.00;99.90;;;;;;5067594;28;20064;-52
2021/05/31 00:18:33;;;;;;;0.50;0.50;;;18.10;99.90;;;;;;5067340;28;20032;-52
2021/05/31 00:21:00;;;;;;;0.57;0.50;;;18.10;99.90;;;;;;5068116;28;20398;-51
2021/05/31 00:23:27;;;;;;;0.50;0.50;;;18.20;99.90;;;;;;5066912;28;20036;-51
2021/05/31 00:25:53;;;;;;;2.35;0.68;;;18.30;99.90;;;;;;5067616;28;20054;-52
2021/05/31 00:28:19;;;;;;;0.50;0.50;;;18.30;99.90;;;;;;5067361;28;20035;-49
2021/05/31 00:30:46;;;;;;;0.80;0.60;;;18.40;99.90;;;;;;5066558;28;20269;-48
2021/05/31 00:33:11;;;;;;;0.47;0.47;;;18.30;99.90;;;;;;5065701;28;20025;-50
2021/05/31 00:35:37;;;;;;;0.50;0.50;;;18.20;99.90;;;;;;5066642;28;20024;-50
2021/05/31 00:38:03;;;;;;;0.70;0.70;;;18.40;99.90;;;;;;5066627;28;20086;-48
2021/05/31 00:40:29;;;;;;;0.75;0.73;;;18.50;99.90;;;;;;5067392;28;20036;-53
2021/05/31 00:42:55;;;;;;;1.00;0.60;;;18.40;99.90;;;;;;5067324;28;20111;-53
2021/05/31 00:45:22;;;;;;;0.63;0.63;;;18.20;99.90;;;;;;5066948;28;20144;-51
2021/05/31 00:47:50;;;;;;;0.60;0.60;;;18.00;99.90;;;;;;5067254;28;20094;-51
2021/05/31 00:50:16;;;;;;;0.60;0.60;;;18.00;99.90;;;;;;5067271;28;20409;-50
2021/05/31 00:52:42;;;;;;;0.73;0.60;;;18.00;99.90;;;;;;5067541;28;20020;-48
2021/05/31 00:55:09;;;;;;;1.48;0.60;;;18.00;99.90;;;;;;5065810;28;20097;-49
2021/05/31 00:57:35;;;;;;;1.02;0.60;;;18.00;99.90;;;;;;5066925;28;20090;-50
2021/05/31 01:00:03;;;;;;;0.80;0.70;;;17.90;99.90;;;;;;5066797;28;20039;-52
2021/05/31 01:02:29;;;;;;;0.50;0.50;;;17.90;99.90;;;;;;5066847;28;20028;-51
2021/05/31 01:04:56;;;;;;;1.50;0.60;;;18.00;99.90;;;;;;5066605;28;20465;-52
2021/05/31 01:07:25;;;;;;;0.73;0.60;;;17.80;99.90;;;;;;5066622;28;20398;-52
2021/05/31 01:10:03;;;;;;;0.50;0.50;;;17.80;99.90;;;;;;5066729;28;20203;-52
2021/05/31 01:12:37;;;;;;;0.80;0.60;;;18.10;99.90;;;;;;5066594;28;20021;-53
2021/05/31 01:15:20;;;;;;;1.15;0.55;;;18.40;99.90;;;;;;5066716;28;20418;-50
2021/05/31 01:17:55;;;;;;;0.75;0.55;;;18.60;99.90;;;;;;5067582;28;20036;-52
2021/05/31 01:20:48;;;;;;;0.68;0.60;;;18.70;99.90;;;;;;5066426;28;20028;-50
2021/05/31 01:23:17;;;;;;;0.50;0.50;;;18.70;99.90;;;;;;5065769;28;20048;-49
2021/05/31 01:25:54;;;;;;;0.68;0.68;;;18.50;99.90;;;;;;5067011;28;20036;-51
2021/05/31 01:28:56;;;;;;;0.90;0.50;;;18.60;99.90;;;;;;5066330;28;20701;-50
2021/05/31 01:31:31;;;;;;;0.52;0.52;;;18.60;99.90;;;;;;5061298;28;20482;-52
2021/05/31 01:33:59;;;;;;;0.50;0.50;;;18.50;99.90;;;;;;5065703;28;20021;-51
2021/05/31 01:36:25;;;;;;;0.50;0.50;;;18.30;99.90;;;;;;5065986;28;20146;-52
2021/05/31 01:38:54;;;;;;;0.57;0.45;;;18.20;99.90;;;;;;5066296;28;20028;-52
2021/05/31 01:41:20;;;;;;;0.43;0.43;;;18.10;99.90;;;;;;5065853;28;20035;-52
2021/05/31 01:43:47;;;;;;;0.60;0.60;;;18.00;99.90;;;;;;5065401;28;20502;-52
2021/05/31 01:46:14;;;;;;;0.55;0.55;;;18.10;99.90;;;;;;5066085;28;20025;-51
2021/05/31 01:48:42;;;;;;;0.40;0.40;;;18.10;99.90;;;;;;5065752;28;20013;-52
2021/05/31 01:51:09;;;;;;;0.30;0.30;;;18.20;99.90;;;;;;5063907;28;20033;-52
2021/05/31 01:53:35;;;;;;;0.40;0.40;;;18.10;99.90;;;;;;5065549;28;20020;-53
2021/05/31 01:56:01;;;;;;;0.52;0.52;;;18.00;99.90;;;;;;5064976;28;20097;-52
2021/05/31 01:58:28;;;;;;;1.02;0.60;;;18.10;99.90;;;;;;5065801;28;20032;-52
2021/05/31 02:00:55;;;;;;;0.60;0.40;;;18.10;99.90;;;;;;5065613;28;20047;-52
2021/05/31 02:03:22;;;;;;;0.57;0.50;;;18.10;99.90;;;;;;5065171;28;20089;-52
2021/05/31 02:05:48;;;;;;;1.17;0.70;;;18.00;99.90;;;;;;5065731;28;20060;-51
2021/05/31 02:08:13;;;;;;;1.30;0.50;;;17.90;99.90;;;;;;5066041;28;20447;-51
2021/05/31 02:10:39;;;;;;;0.60;0.60;;;17.90;99.90;;;;;;5064122;28;20134;-52
2021/05/31 02:13:04;;;;;;;0.68;0.60;;;17.80;99.90;;;;;;5065316;28;20024;-52
2021/05/31 02:15:36;;;;;;;0.60;0.60;;;17.60;99.90;;;;;;5065396;28;20097;-52
2021/05/31 02:18:26;;;;;;;0.65;0.50;;;17.10;99.90;;;;;;5064979;28;20111;-48
2021/05/31 02:20:58;;;;;;;0.40;0.40;;;17.00;99.90;;;;;;5065482;28;20032;-49
2021/05/31 02:23:26;;;;;;;0.73;0.60;;;16.90;99.90;;;;;;5065214;28;20055;-50
2021/05/31 02:25:53;;;;;;;1.42;0.40;;;16.60;99.90;;;;;;5065495;28;20029;-49
2021/05/31 02:28:20;;;;;;;0.60;0.57;;;16.60;99.90;;;;;;5065328;28;20513;-49
2021/05/31 02:30:46;;;;;;;0.60;0.52;;;16.50;99.90;;;;;;5065306;28;20617;-50
2021/05/31 02:33:12;;;;;;;0.60;0.50;;;16.50;99.90;;;;;;5064629;28;20027;-49
2021/05/31 02:35:39;;;;;;;0.52;0.52;;;16.70;99.90;;;;;;5065106;28;20028;-51
2021/05/31 02:38:07;;;;;;;0.77;0.50;;;16.80;99.90;;;;;;5064930;28;20028;-51
2021/05/31 02:40:34;;;;;;;1.15;0.70;;;16.90;99.90;;;;;;5065702;28;20082;-52
2021/05/31 02:43:03;;;;;;;0.80;0.70;;;17.00;99.90;;;;;;5064211;28;20040;-52
2021/05/31 02:45:31;;;;;;;0.70;0.70;;;17.00;99.90;;;;;;5064273;28;20426;-53
2021/05/31 02:47:59;;;;;;;0.70;0.70;;;16.80;99.90;;;;;;5064945;28;20020;-51
2021/05/31 02:50:27;;;;;;;1.10;0.75;;;16.70;99.90;;;;;;5064695;28;20032;-51
2021/05/31 02:52:55;;;;;;;0.70;0.55;;;16.70;99.90;;;;;;5065151;28;20024;-52
2021/05/31 02:55:23;;;;;;;0.80;0.75;;;16.60;99.90;;;;;;5064191;28;20033;-52
2021/05/31 02:57:50;;;;;;;0.63;0.60;;;16.60;99.90;;;;;;5064953;28;20055;-49
2021/05/31 03:00:19;;;;;;;0.65;0.65;;;16.50;99.90;;;;;;5065154;28;20043;-51
2021/05/31 03:02:46;;;;;;;0.93;0.60;;;16.60;99.90;;;;;;5065293;28;20047;-51
2021/05/31 03:05:16;;;;;;;0.65;0.60;;;16.60;99.90;;;;;;5064903;28;20024;-49
2021/05/31 03:07:41;;;;;;;0.90;0.55;;;16.70;99.90;;;;;;5064775;28;20027;-52
2021/05/31 03:10:08;;;;;;;0.77;0.73;;;16.60;99.90;;;;;;5064680;28;20546;-52
2021/05/31 03:12:35;;;;;;;0.45;0.45;;;16.60;99.90;;;;;;5064718;28;20271;-50
2021/05/31 03:15:01;;;;;;;0.70;0.70;;;16.60;99.90;;;;;;5064690;28;20036;-49
2021/05/31 03:17:27;;;;;;;2.78;0.98;;;16.50;99.90;;;;;;5063561;28;20296;-51
2021/05/31 03:19:53;;;;;;;0.70;0.70;;;16.50;99.90;;;;;;5064755;28;20033;-50
2021/05/31 03:22:19;;;;;;;1.48;0.73;;;16.50;99.90;;;;;;5063446;28;20522;-49
2021/05/31 03:24:44;;;;;;;0.60;0.57;;;16.60;99.90;;;;;;5065287;28;20028;-49
2021/05/31 03:27:10;;;;;;;0.95;0.70;;;16.50;99.90;;;;;;5063763;28;20025;-51
2021/05/31 03:29:36;;;;;;;0.60;0.60;;;16.50;99.90;;;;;;5064473;28;20036;-50
2021/05/31 03:32:02;;;;;;;1.55;0.70;;;16.40;99.90;;;;;;5062514;28;20427;-52
2021/05/31 03:34:28;;;;;;;0.80;0.80;;;16.50;99.90;;;;;;5063481;28;20028;-51
2021/05/31 03:36:53;;;;;;;0.70;0.70;;;16.40;99.90;;;;;;5063690;28;20135;-52
2021/05/31 03:39:20;;;;;;;0.80;0.70;;;16.40;99.90;;;;;;5062958;28;20032;-51
2021/05/31 03:41:46;;;;;;;0.75;0.60;;;16.20;99.90;;;;;;5064486;28;20023;-49
2021/05/31 03:44:11;;;;;;;0.90;0.75;;;16.20;99.90;;;;;;5063386;28;20029;-52
2021/05/31 03:46:37;;;;;;;0.65;0.65;;;16.10;99.90;;;;;;5065672;28;20039;-49
2021/05/31 03:49:03;;;;;;;1.23;1.00;;;16.10;99.90;;;;;;5064196;28;20029;-52
2021/05/31 03:51:29;;;;;;;0.98;0.88;;;16.20;99.90;;;;;;5058532;28;20509;-52
2021/05/31 03:53:54;;;;;;;1.02;0.80;;;16.10;99.90;;;;;;5060875;28;20025;-51
2021/05/31 03:56:20;;;;;;;0.95;0.90;;;16.00;99.90;;;;;;5068026;28;20067;-52
2021/05/31 03:58:48;;;;;;;0.75;0.60;;;16.10;99.90;;;;;;5068613;28;20066;-52
2021/05/31 04:01:14;;;;;;;0.60;0.60;;;16.20;99.90;;;;;;5058009;28;20016;-51
2021/05/31 04:03:41;;;;;;;1.50;0.70;;;16.20;99.90;;;;;;5064162;28;20036;-53
2021/05/31 04:14:20;;;;;;;0.95;0.70;;;16.10;99.90;;;;;;5069375;28;20123;-53
2021/05/31 04:16:49;;;;;;;0.65;0.55;;;16.10;99.90;;;;;;5069897;28;20139;-52
2021/05/31 04:19:17;;;;;;;1.23;0.77;;;16.10;99.90;;;;;;5054697;28;20090;-53
2021/05/31 04:21:45;;;;;;;0.70;0.70;;;16.00;99.90;;;;;;5069405;28;20078;-50
2021/05/31 04:24:12;;;;;;;1.58;0.80;;;16.00;99.90;;;;;;5068805;28;20040;-51
2021/05/31 04:26:39;;;;;;;0.77;0.60;;;16.10;99.90;;;;;;5067752;28;20040;-49
2021/05/31 04:29:06;;;;;;;1.23;0.70;;;15.90;99.90;;;;;;5069100;28;20036;-52
2021/05/31 04:31:33;;;;;;;0.90;0.60;;;15.80;99.90;;;;;;5068208;28;20510;-49
2021/05/31 04:34:02;;;;;;;1.13;0.60;;;15.80;99.90;;;;;;5052328;28;20045;-48
2021/05/31 04:36:29;;;;;;;0.70;0.70;;;15.80;99.90;;;;;;5047366;28;20025;-50
2021/05/31 04:38:54;;;;;;;0.93;0.70;;;15.80;99.90;;;;;;5047371;28;20036;-49
2021/05/31 04:41:21;;;;;;;1.08;0.60;;;15.80;99.90;;;;;;5047096;28;20037;-52
2021/05/31 04:43:47;;;;;;;2.28;0.70;;;15.90;99.90;;;;;;5050729;28;20491;-52
2021/05/31 04:46:13;;;;;;;0.85;0.63;;;15.90;99.90;;;;;;5067275;28;20029;-51
2021/05/31 04:48:40;;;;;;;0.77;0.60;;;15.90;99.90;;;;;;5067225;28;20024;-52
2021/05/31 04:51:05;;;;;;;0.60;0.60;;;15.90;99.90;;;;;;5063385;28;20103;-52
2021/05/31 04:53:32;;;;;;;0.50;0.50;;;16.00;99.90;;;;;;5066564;28;20120;-51
2021/05/31 04:56:02;;;;;;;0.70;0.70;;;16.10;99.90;;;;;;5068325;28;20027;-52
2021/05/31 04:58:28;;;;;;;0.80;0.77;;;16.00;99.90;;;;;;5068644;28;20102;-52
2021/05/31 05:00:54;;;;;;;2.05;0.60;;;15.80;99.90;;;;;;5068369;28;20029;-52
2021/05/31 05:03:20;;;;;;;0.70;0.70;;;15.80;99.90;;;;;;5061392;28;20024;-51
2021/05/31 05:05:46;;;;;;;1.13;0.70;;;16.00;99.90;;;;;;5057348;28;20033;-51
2021/05/31 05:08:12;;;;;;;0.60;0.60;;;16.00;99.90;;;;;;5065509;28;20032;-50
2021/05/31 05:10:38;;;;;;;1.30;0.90;;;16.00;99.90;;;;;;5056339;28;20498;-52
2021/05/31 05:13:04;;;;;;;1.13;0.80;;;16.00;99.90;;;;;;5048641;28;20060;-52
2021/05/31 05:15:30;;;;;;;1.00;0.70;;;16.30;99.90;;;;;;5063672;28;20064;-52
2021/05/31 05:17:56;;;;;;;0.60;0.60;;;16.10;99.90;;;;;;5068581;28;20028;-51
2021/05/31 05:20:25;;;;;;;0.75;0.60;;;16.00;99.90;;;;;;5065914;28;20040;-52
2021/05/31 05:22:53;;;;;;;0.80;0.80;;;16.30;99.90;;;;;;5068065;28;20027;-52
2021/05/31 05:25:19;;;;;;;2.50;0.73;;;16.30;99.90;;;;;;5067395;28;20751;-51
2021/05/31 05:27:49;;;;;;;1.15;0.70;;;16.30;99.90;;;;;;5068157;28;20092;-52
2021/05/31 05:30:18;;;;;;;0.60;0.60;;;16.30;99.90;;;;;;5066196;28;20081;-52
2021/05/31 05:32:49;;;;;;;0.63;0.63;;;16.30;99.90;;;;;;5067897;28;20134;-52
2021/05/31 05:48:33;;;;;;;;;;;16.70;99.90;;;;;;5068167;28;20399;-51
2021/05/31 05:51:09;;;;;;;0.60;0.60;;;16.70;99.90;;;;;;5067482;28;19905;-51
2021/05/31 05:53:43;;;;;;;0.93;0.70;;;16.80;99.90;;;;;;5067512;28;20032;-50
2021/05/31 05:56:13;;;;;;;;;;;16.90;99.90;;;;;;5067733;28;20021;-52
2021/05/31 05:58:39;;;;;;;0.70;0.70;;;17.00;99.90;;;;;;5067528;28;19908;-52
2021/05/31 06:01:07;;;;;;;1.00;0.70;;;17.10;99.90;;;;;;5065352;28;20047;-52
2021/05/31 06:03:33;;;;;;;0.77;0.77;;;17.10;99.90;;;;;;5067350;28;20029;-52
2021/05/31 06:06:04;;;;;;;0.50;0.50;;;17.10;99.90;;;;;;5067704;28;20032;-52
2021/05/31 06:08:30;;;;;;;1.05;0.75;;;17.10;99.90;;;;;;5066374;28;20131;-52
2021/05/31 06:10:56;;;;;;;0.60;0.60;;;17.00;99.90;;;;;;5067799;28;20067;-51
2021/05/31 06:13:25;;;;;;;2.25;0.80;;;17.00;99.90;;;;;;5065081;28;20025;-52
2021/05/31 06:15:54;;;;;;;0.60;0.60;;;17.20;99.90;;;;;;5061863;28;20063;-50
2021/05/31 06:18:20;;;;;;;1.23;0.70;;;17.30;99.90;;;;;;5063272;28;20064;-51
2021/05/31 06:20:47;;;;;;;0.95;0.85;;;17.40;99.90;;;;;;5066538;28;20061;-53
2021/05/31 06:23:14;;;;;;;0.60;0.60;;;17.40;99.90;;;;;;5061252;28;20017;-53
2021/05/31 06:25:41;;;;;;;0.50;0.50;;;17.50;99.90;;;;;;5065203;28;20036;-52
2021/05/31 06:28:07;;;;;;;0.90;0.60;;;17.50;99.90;;;;;;5063541;28;20012;-51
2021/05/31 06:30:35;;;;;;;0.80;0.80;;;17.60;99.90;;;;;;5064276;28;20024;-52
2021/05/31 06:33:00;;;;;;;0.70;0.70;;;17.60;99.90;;;;;;5064162;28;20043;-53
2021/05/31 06:35:27;;;;;;;0.60;0.60;;;17.60;99.90;;;;;;5065246;28;20028;-53
2021/05/31 06:37:53;;;;;;;0.43;0.43;;;17.60;99.90;;;;;;5063257;28;20031;-53
2021/05/31 06:40:20;;;;;;;1.48;0.77;;;17.80;99.90;;;;;;5062481;28;20633;-52
2021/05/31 06:42:47;;;;;;;1.05;0.68;;;17.80;99.90;;;;;;5063404;28;20031;-52
2021/05/31 06:45:23;;;;;;;0.57;0.57;;;17.80;99.90;;;;;;5064683;28;20028;-53
2021/05/31 06:47:52;;;;;;;0.73;0.73;;;17.90;99.90;;;;;;5065287;28;20495;-52
2021/05/31 06:50:18;;;;;;;0.60;0.60;;;17.90;99.90;;;;;;5060192;28;20020;-53
2021/05/31 06:52:44;;;;;;;0.95;0.85;;;17.90;99.90;;;;;;5062365;28;20035;-52
2021/05/31 06:55:11;;;;;;;0.75;0.70;;;18.00;99.90;;;;;;5063203;28;20084;-51
2021/05/31 06:57:37;;;;;;;0.50;0.50;;;18.10;99.90;;;;;;5062829;28;20502;-52
2021/05/31 07:00:09;;;;;;;1.15;0.82;;;18.20;99.90;;;;;;5063506;28;20025;-53
2021/05/31 07:02:35;;;;;;;0.50;0.50;;;18.10;99.90;;;;;;5063506;28;20081;-52
2021/05/31 07:05:01;;;;;;;0.88;0.60;;;18.00;99.90;;;;;;5053377;28;20040;-52
2021/05/31 07:07:28;;;;;;;0.70;0.70;;;18.20;99.90;;;;;;5063002;28;20454;-52
2021/05/31 07:09:53;;;;;;;0.88;0.63;;;18.20;99.90;;;;;;5064640;28;20029;-50
2021/05/31 07:12:19;;;;;;;0.57;0.57;;;18.30;99.90;;;;;;5061302;28;20100;-51
2021/05/31 07:14:48;;;;;;;0.63;0.60;;;18.20;99.90;;;;;;5062356;28;20032;-49
2021/05/31 07:17:15;;;;;;;0.57;0.50;;;18.30;99.90;;;;;;5062387;28;20035;-49
2021/05/31 07:19:44;;;;;;;0.68;0.60;;;18.50;99.90;;;;;;5065239;28;20114;-50
2021/05/31 07:22:12;;;;;;;0.80;0.60;;;18.40;99.90;;;;;;5067153;28;20037;-50
2021/05/31 07:24:38;;;;;;;0.52;0.47;;;18.40;99.90;;;;;;5065885;28;20031;-51
2021/05/31 07:27:04;;;;;;;0.68;0.60;;;18.50;99.90;;;;;;5065924;28;20028;-52
2021/05/31 07:29:29;;;;;;;0.68;0.60;;;18.40;99.90;;;;;;5067118;28;20024;-48
2021/05/31 07:31:55;;;;;;;1.45;0.77;;;18.50;99.90;;;;;;5068051;28;20411;-51
2021/05/31 07:34:21;;;;;;;0.50;0.50;;;18.60;99.90;;;;;;5066582;28;20083;-52
2021/05/31 07:36:47;;;;;;;0.57;0.45;;;18.70;99.90;;;;;;5066508;28;20473;-52
2021/05/31 07:39:13;;;;;;;0.50;0.50;;;18.80;99.90;;;;;;5066385;28;20039;-50
2021/05/31 07:41:39;;;;;;;0.50;0.50;;;18.90;99.90;;;;;;5067389;28;20032;-52
2021/05/31 07:44:05;;;;;;;0.40;0.40;;;18.90;99.90;;;;;;5067693;28;20694;-52
2021/05/31 07:46:31;;;;;;;0.40;0.40;;;18.90;99.90;;;;;;5069573;28;20032;-49
2021/05/31 07:48:57;;;;;;;0.40;0.40;;;19.00;99.90;;;;;;5067460;28;20020;-50
2021/05/31 07:51:22;;;;;;;0.40;0.40;;;18.90;99.90;;;;;;5067692;28;20078;-51
2021/05/31 07:53:51;;;;;;;0.47;0.47;;;19.00;99.90;;;;;;5068186;28;20017;-49
2021/05/31 07:56:20;;;;;;;0.63;0.50;;;19.10;99.90;;;;;;5068424;28;20131;-50
2021/05/31 07:58:46;;;;;;;0.45;0.45;;;19.20;99.90;;;;;;5068158;28;20025;-51
2021/05/31 08:01:12;;;;;;;0.47;0.40;;;19.20;99.90;;;;;;5068428;28;20024;-50
2021/05/31 08:03:39;;;;;;;0.85;0.40;;;19.20;99.90;;;;;;5068549;28;20028;-51
2021/05/31 08:06:06;;;;;;;0.52;0.40;;;19.10;99.90;;;;;;5066929;28;20036;-51
2021/05/31 08:08:31;;;;;;;0.40;0.40;;;19.30;99.90;;;;;;5068072;28;20403;-50
2021/05/31 08:10:57;;;;;;;2.25;0.50;;;19.20;99.90;;;;;;5067847;28;20097;-48
2021/05/31 08:13:23;;;;;;;0.45;0.45;;;19.40;99.90;;;;;;5067892;28;20070;-50
2021/05/31 08:15:51;;;;;;;0.57;0.57;;;19.50;99.90;;;;;;5067907;28;20039;-52
2021/05/31 08:18:17;;;;;;;0.50;0.50;;;19.40;99.90;;;;;;5067594;28;20078;-49
2021/05/31 08:20:43;;;;;;;0.32;0.32;;;19.50;99.90;;;;;;5067906;28;20063;-51
2021/05/31 08:23:09;;;;;;;0.40;0.40;;;19.60;99.90;;;;;;5068233;28;20060;-52
2021/05/31 08:25:35;;;;;;;0.90;0.40;;;19.60;99.90;;;;;;5067763;28;20032;-48
2021/05/31 08:28:03;;;;;;;0.35;0.35;;;19.70;99.90;;;;;;5066740;28;20024;-49
2021/05/31 08:30:33;;;;;;;0.47;0.47;;;19.80;99.90;;;;;;5062979;28;20013;-50
2021/05/31 08:33:00;;;;;;;0.35;0.32;;;19.70;99.90;;;;;;5065338;28;20033;-48
2021/05/31 08:35:25;;;;;;;0.50;0.50;;;19.70;99.90;;;;;;5065581;28;20055;-52
2021/05/31 08:37:52;;;;;;;0.60;0.50;;;19.70;99.90;;;;;;5067759;28;20052;-52
2021/05/31 08:40:20;;;;;;;0.45;0.45;;;19.60;99.90;;;;;;5067295;28;20020;-50
2021/05/31 08:42:46;;;;;;;1.05;0.50;;;19.70;99.90;;;;;;5067403;28;20021;-49
2021/05/31 08:45:15;;;;;;;0.63;0.60;;;19.60;99.90;;;;;;5067368;28;20043;-51
2021/05/31 08:47:45;;;;;;;0.40;0.40;;;19.70;99.90;;;;;;5067441;28;20037;-52
2021/05/31 08:50:13;;;;;;;0.75;0.75;;;19.80;99.90;;;;;;5067713;28;20048;-52
2021/05/31 08:52:41;;;;;;;0.77;0.55;;;20.00;99.90;;;;;;5067219;28;20101;-52
2021/05/31 08:55:09;;;;;;;0.50;0.50;;;20.00;99.90;;;;;;5067052;28;20283;-51
2021/05/31 08:57:35;;;;;;;0.52;0.52;;;20.00;99.90;;;;;;5060129;28;20086;-52
2021/05/31 09:00:02;;;;;;;0.65;0.30;;;20.20;99.90;;;;;;5057117;28;20494;-52
2021/05/31 09:02:33;;;;;;;0.25;0.25;;;20.20;99.90;;;;;;5065742;28;20067;-54
2021/05/31 09:05:00;;;;;;;0.40;0.40;;;20.20;99.90;;;;;;5066595;28;20507;-54
2021/05/31 09:07:26;;;;;;;0.40;0.40;;;20.30;99.90;;;;;;5066357;28;20028;-54
2021/05/31 09:09:55;;;;;;;0.30;0.30;;;20.50;99.90;;;;;;5065763;28;20043;-53
2021/05/31 09:12:27;;;;;;;0.40;0.30;;;20.50;99.90;;;;;;5060675;28;20166;-55
2021/05/31 09:15:00;;;;;;;0.73;0.45;;;20.50;99.90;;;;;;5066664;28;20017;-54
2021/05/31 09:17:29;;;;;;;0.40;0.40;;;20.40;99.90;;;;;;5064950;28;20035;-54
2021/05/31 09:19:55;;;;;;;0.20;0.20;;;20.50;99.90;;;;;;5066463;28;20103;-55
2021/05/31 09:22:23;;;;;;;0.28;0.28;;;20.60;99.90;;;;;;5065630;28;20036;-55
2021/05/31 09:25:05;;;;;;;0.40;0.40;;;20.80;99.90;;;;;;5066092;28;20025;-54
2021/05/31 09:27:32;;;;;;;0.30;0.30;;;20.80;99.90;;;;;;5064660;28;20120;-55
2021/05/31 09:30:00;;;;;;;0.30;0.30;;;20.90;99.90;;;;;;5065389;28;20031;-54
2021/05/31 09:32:27;;;;;;;0.30;0.30;;;20.70;99.90;;;;;;5065981;28;20502;-54
2021/05/31 09:34:57;;;;;;;0.75;0.50;;;20.80;99.90;;;;;;5066042;28;20130;-55
2021/05/31 09:37:24;;;;;;;0.80;0.50;;;20.80;99.90;;;;;;5061261;28;20116;-54
2021/05/31 09:40:11;;;;;;;0.70;0.60;;;20.80;99.90;;;;;;5065915;28;20025;-55
2021/05/31 09:42:51;;;;;;;0.50;0.50;;;20.80;99.90;;;;;;5065622;28;20048;-54
2021/05/31 09:45:17;;;;;;;0.60;0.60;;;20.90;99.90;;;;;;5065522;28;20233;-55
2021/05/31 09:47:43;;;;;;;0.55;0.40;;;21.00;99.90;;;;;;5063359;28;20033;-54
2021/05/31 09:50:10;;;;;;;0.45;0.45;;;21.10;99.90;;;;;;5063934;28;20020;-54
2021/05/31 09:52:36;;;;;;;0.60;0.60;;;21.00;99.90;;;;;;5062260;28;20043;-54
2021/05/31 09:55:05;;;;;;;0.50;0.50;;;21.00;99.90;;;;;;5065356;28;20735;-54
2021/05/31 09:57:35;;;;;;;0.40;0.40;;;21.10;99.90;;;;;;5065379;28;20020;-55
2021/05/31 10:00:14;;;;;;;0.85;0.50;;;21.40;99.90;;;;;;5048726;28;20506;-54
2021/05/31 10:10:37;;;;;;;0.50;0.50;;;21.60;99.90;;;;;;5061985;28;20039;-55
2021/05/31 10:13:04;;;;;;;0.55;0.55;;;21.70;99.90;;;;;;5063244;28;20519;-55
2021/05/31 10:15:33;;;;;;;0.57;0.57;;;21.50;99.90;;;;;;5064110;28;20031;-53
2021/05/31 10:18:00;;;;;;;0.40;0.40;;;21.70;99.90;;;;;;5061956;28;20047;-55
2021/05/31 10:20:28;;;;;;;0.55;0.50;;;21.80;99.90;;;;;;5064214;28;20021;-55
2021/05/31 10:22:54;;;;;;;1.05;0.80;;;21.90;99.90;;;;;;5064948;28;20044;-55
2021/05/31 10:25:22;;;;;;;0.50;0.50;;;21.90;99.90;;;;;;5065142;28;20137;-55
2021/05/31 10:27:53;;;;;;;0.52;0.52;;;21.90;99.90;;;;;;5063600;28;20017;-54
2021/05/31 10:30:20;;;;;;;0.55;0.55;;;22.00;99.90;;;;;;5063070;28;20029;-55
2021/05/31 10:32:50;;;;;;;0.60;0.52;;;22.10;99.90;;;;;;5064760;28;20024;-54
2021/05/31 10:35:18;;;;;;;0.73;0.63;;;22.40;99.90;;;;;;5057589;28;20020;-56
2021/05/31 10:37:54;;;;;;;0.60;0.60;;;22.40;99.90;;;;;;5064977;28;20021;-56
2021/05/31 10:40:21;;;;;;;1.17;0.60;;;22.40;99.90;;;;;;5064605;28;20016;-55
2021/05/31 10:42:50;;;;;;;0.50;0.50;;;22.40;99.90;;;;;;5064107;28;20029;-55
2021/05/31 10:45:24;;;;;;;0.40;0.40;;;22.50;99.90;;;;;;5064375;28;20036;-56
2021/05/31 10:48:11;;;;;;;0.40;0.40;;;22.60;99.90;;;;;;5064201;28;20036;-56
2021/05/31 10:50:38;;;;;;;0.60;0.60;;;22.70;99.90;;;;;;5064734;28;20074;-54
2021/05/31 10:53:19;;;;;;;0.50;0.50;;;22.80;99.90;;;;;;5062727;28;20174;-54
2021/05/31 10:56:04;;;;;;;0.50;0.50;;;22.80;99.90;;;;;;5064040;28;20028;-54
2021/05/31 10:58:37;;;;;;;0.90;0.50;;;22.80;99.90;;;;;;5062155;28;20037;-53
2021/05/31 11:01:08;;;;;;;0.50;0.50;;;22.90;99.90;;;;;;5063747;28;20032;-53
2021/05/31 11:04:00;;;;;;;0.60;0.60;;;22.90;99.90;;;;;;5064271;28;20028;-55
2021/05/31 11:06:30;;;;;;;0.50;0.50;;;23.20;99.90;;;;;;5063944;28;20016;-54
2021/05/31 11:09:04;;;;;;;0.60;0.60;;;23.10;99.40;;;;;;5064307;28;20032;-55
2021/05/31 11:11:34;;;;;;;1.08;0.63;;;23.10;98.70;;;;;;5063627;28;20032;-54
2021/05/31 11:14:00;;;;;;;0.50;0.50;;;23.30;98.80;;;;;;5064049;28;20156;-53
2021/05/31 11:16:27;;;;;;;0.55;0.55;;;23.10;98.60;;;;;;5064048;28;20541;-54
2021/05/31 11:18:58;;;;;;;0.75;0.60;;;23.20;98.80;;;;;;5096223;28;20020;-54
2021/05/31 11:21:31;;;;;;;0.50;0.50;;;23.30;99.10;;;;;;5063951;28;20031;-53
2021/05/31 11:24:08;;;;;;;0.52;0.52;;;23.30;99.10;;;;;;5060864;28;20511;-54
2021/05/31 11:26:37;;;;;;;0.43;0.43;;;23.60;98.90;;;;;;5062134;28;20052;-54
2021/05/31 11:29:07;;;;;;;0.50;0.40;;;23.80;98.50;;;;;;5062625;28;20502;-54
2021/05/31 11:31:35;;;;;;;0.55;0.55;;;23.90;98.90;;;;;;5060700;28;20020;-53
2021/05/31 11:34:02;;;;;;;0.95;0.80;;;23.80;97.60;;;;;;5063812;28;20032;-53
2021/05/31 11:36:37;;;;;;;0.60;0.60;;;23.80;97.50;;;;;;5064112;28;20308;-53
2021/05/31 11:39:08;;;;;;;0.60;0.60;;;23.90;97.70;;;;;;5063659;28;20283;-54
2021/05/31 11:41:48;;;;;;;0.80;0.70;;;24.00;97.50;;;;;;5063471;28;20027;-53
2021/05/31 11:44:25;;;;;;;0.70;0.70;;;24.10;97.20;;;;;;5064766;28;20143;-53
2021/05/31 11:46:55;;;;;;;0.85;0.80;;;24.30;97.70;;;;;;5063642;28;20433;-54
2021/05/31 11:49:24;;;;;;;1.45;0.70;;;24.50;96.70;;;;;;5063829;28;20028;-54
2021/05/31 11:52:06;;;;;;;0.80;0.77;;;24.60;97.10;;;;;;5063283;28;20055;-54
2021/05/31 11:54:34;;;;;;;0.82;0.70;;;24.90;97.10;;;;;;5061620;28;20100;-55
2021/05/31 11:57:02;;;;;;;0.70;0.70;;;25.10;97.10;;;;;;5063527;28;20024;-55
2021/05/31 11:59:34;;;;;;;0.70;0.70;;;25.20;97.00;;;;;;5063678;28;20495;-54
2021/05/31 12:02:01;;;;;;;0.75;0.75;;;25.40;96.60;;;;;;5063626;28;20033;-55
2021/05/31 12:04:27;;;;;;;0.80;0.77;;;25.30;96.60;;;;;;5063136;28;20035;-54
2021/05/31 12:07:00;;;;;;;0.63;0.63;;;25.70;96.30;;;;;;5064687;28;20025;-54
2021/05/31 12:09:26;;;;;;;0.40;0.40;;;25.90;96.70;;;;;;5067223;28;20024;-54
2021/05/31 12:11:53;;;;;;;0.60;0.60;;;26.20;96.40;;;;;;5067078;28;20056;-54
2021/05/31 12:14:20;;;;;;;0.60;0.60;;;26.30;96.30;;;;;;5067049;28;20025;-54
2021/05/31 12:16:57;;;;;;;2.40;0.80;;;26.60;95.60;;;;;;5067182;28;20061;-54
2021/05/31 12:19:28;;;;;;;0.60;0.60;;;26.30;96.00;;;;;;5067122;28;20082;-54
2021/05/31 12:21:59;;;;;;;0.95;0.60;;;26.80;94.90;;;;;;5067075;28;20024;-55
2021/05/31 12:24:31;;;;;;;0.52;0.52;;;26.80;94.80;;;;;;5067307;28;20068;-54
2021/05/31 12:26:58;;;;;;;0.60;0.60;;;26.90;94.60;;;;;;5066845;28;20028;-54
2021/05/31 12:29:41;;;;;;;0.50;0.50;;;27.00;95.20;;;;;;5066955;28;20035;-54
2021/05/31 12:32:12;;;;;;;0.50;0.50;;;27.30;95.50;;;;;;5066895;28;20087;-55
2021/05/31 12:34:40;;;;;;;0.40;0.40;;;27.20;95.50;;;;;;5067137;28;20054;-54
2021/05/31 12:37:11;;;;;;;0.55;0.40;;;27.10;95.00;;;;;;5066705;28;20067;-55
2021/05/31 12:39:48;;;;;;;0.50;0.50;;;26.90;94.80;;;;;;5066927;28;20021;-54
2021/05/31 12:42:23;;;;;;;0.55;0.55;;;27.00;95.40;;;;;;5065498;28;20029;-54
2021/05/31 12:44:50;;;;;;;0.80;0.80;;;27.40;95.70;;;;;;5066933;28;20107;-54
2021/05/31 12:47:18;;;;;;;0.60;0.60;;;27.70;95.50;;;;;;5066306;28;20031;-55
2021/05/31 12:49:49;;;;;;;0.50;0.50;;;28.10;94.40;;;;;;5067654;28;20027;-54
2021/05/31 12:52:27;;;;;;;0.55;0.55;;;28.10;94.80;;;;;;5065691;28;20375;-54
2021/05/31 12:55:07;;;;;;;0.60;0.60;;;28.00;94.40;;;;;;5067037;28;20067;-54
2021/05/31 12:57:38;;;;;;;1.08;0.60;;;28.10;95.10;;;;;;5066293;28;20109;-52
2021/05/31 13:00:19;;;;;;;0.70;0.70;;;27.90;94.90;;;;;;5064646;28;20032;-53
2021/05/31 13:02:52;;;;;;;0.88;0.60;;;28.20;95.20;;;;;;5066667;28;20016;-53
2021/05/31 13:05:22;;;;;;;0.50;0.50;;;28.20;94.90;;;;;;5066202;28;20025;-53
2021/05/31 13:07:50;;;;;;;1.55;0.73;;;28.40;94.40;;;;;;5098342;28;20548;-54
2021/05/31 13:10:21;;;;;;;0.60;0.60;;;28.10;94.70;;;;;;5064267;28;20501;-54
2021/05/31 13:13:13;;;;;;;0.60;0.60;;;28.40;94.90;;;;;;5066095;28;20020;-53
2021/05/31 13:15:53;;;;;;;0.60;0.60;;;28.90;94.20;;;;;;5041514;28;20203;-54
2021/05/31 13:18:21;;;;;;;0.55;0.55;;;29.10;94.40;;;;;;5045436;28;20021;-54
2021/05/31 13:21:17;;;;;;;0.73;0.70;;;28.80;94.60;;;;;;5064404;28;20090;-54
2021/05/31 13:23:44;;;;;;;0.80;0.60;;;28.60;94.60;;;;;;5063707;28;20569;-53
2021/05/31 13:26:23;;;;;;;0.65;0.65;;;29.10;94.50;;;;;;5065935;28;20020;-53